Time,TemperatureF,DewpointF,PressureIn,WindDirection,WindDirectionDegrees,WindSpeedMPH,WindSpeedGustMPH,Humidity,HourlyPrecipIn,Conditions,Clouds,dailyrainin,SoftwareType,DateUTC
2013-02-04 00:01:00,50.0,39.0,29.98,ESE,112,0.0,0.0,67,0.00,,,0.00,,2013-02-04 07:01:00,
2013-02-04 00:11:00,50.0,40.0,29.98,ESE,112,0.0,1.0,68,0.00,,,0.00,,2013-02-04 07:11:00,
2013-02-04 00:21:00,50.0,40.0,29.98,ESE,112,0.0,1.0,68,0.00,,,0.00,,2013-02-04 07:21:00,
2013-02-04 00:31:00,49.0,39.0,29.98,ESE,112,0.0,1.0,69,0.00,,,0.00,,2013-02-04 07:31:00,
2013-02-04 00:41:00,49.0,39.0,29.98,ESE,112,0.0,1.0,69,0.00,,,0.00,,2013-02-04 07:41:00,
2013-02-04 00:52:00,49.0,39.0,29.98,ESE,112,1.0,2.0,69,0.00,,,0.00,,2013-02-04 07:52:00,
2013-02-04 01:01:00,50.0,39.0,29.98,ESE,111,1.0,2.0,67,0.00,,,0.00,,2013-02-04 08:01:00,
2013-02-04 01:11:00,50.0,39.0,29.98,ESE,111,1.0,2.0,67,0.00,,,0.00,,2013-02-04 08:11:00,
2013-02-04 01:21:00,51.0,41.0,29.98,ESE,111,0.0,0.0,68,0.00,,,0.00,,2013-02-04 08:21:00,
2013-02-04 01:31:00,51.0,41.0,29.98,ESE,111,0.0,0.0,68,0.00,,,0.00,,2013-02-04 08:31:00,
2013-02-04 01:41:00,51.0,41.0,29.98,ESE,111,0.0,0.0,68,0.00,,,0.00,,2013-02-04 08:41:00,
2013-02-04 01:52:00,51.0,41.0,29.98,ESE,111,0.0,0.0,68,0.00,,,0.00,,2013-02-04 08:52:00,
2013-02-04 02:01:00,49.0,40.0,29.97,ESE,111,0.0,0.0,70,0.00,,,0.00,,2013-02-04 09:01:00,
2013-02-04 02:11:00,49.0,40.0,29.97,ESE,111,0.0,1.0,70,0.00,,,0.00,,2013-02-04 09:11:00,
2013-02-04 02:21:00,49.0,40.0,29.97,ESE,111,0.0,1.0,70,0.00,,,0.00,,2013-02-04 09:21:00,
2013-02-04 02:31:00,48.0,40.0,29.97,ESE,111,0.0,0.0,73,0.00,,,0.00,,2013-02-04 09:31:00,
2013-02-04 02:41:00,48.0,40.0,29.97,ESE,111,0.0,0.0,73,0.00,,,0.00,,2013-02-04 09:41:00,
2013-02-04 02:51:00,47.0,39.0,29.97,ESE,111,0.0,0.0,75,0.00,,,0.00,,2013-02-04 09:51:00,
2013-02-04 03:01:00,47.0,40.0,29.97,ESE,111,0.0,0.0,76,0.00,,,0.00,,2013-02-04 10:01:00,
2013-02-04 03:11:00,47.0,40.0,29.97,ESE,111,0.0,0.0,76,0.00,,,0.00,,2013-02-04 10:11:00,
2013-02-04 03:21:00,47.0,40.0,29.97,ESE,111,0.0,1.0,76,0.00,,,0.00,,2013-02-04 10:21:00,
2013-02-04 03:32:00,47.0,40.0,29.97,ESE,111,0.0,2.0,76,0.00,,,0.00,,2013-02-04 10:32:00,
2013-02-04 03:41:00,47.0,40.0,29.97,ESE,111,0.0,2.0,76,0.00,,,0.00,,2013-02-04 10:41:00,
2013-02-04 03:52:00,47.0,40.0,29.97,ESE,111,0.0,2.0,76,0.00,,,0.00,,2013-02-04 10:52:00,
2013-02-04 04:01:00,46.0,40.0,29.96,ESE,111,0.0,0.0,78,0.00,,,0.00,,2013-02-04 11:01:00,
2013-02-04 04:11:00,46.0,40.0,29.96,ESE,111,0.0,0.0,78,0.00,,,0.00,,2013-02-04 11:11:00,
2013-02-04 04:22:00,46.0,40.0,29.96,ESE,111,0.0,1.0,78,0.00,,,0.00,,2013-02-04 11:22:00,
2013-02-04 04:32:00,47.0,40.0,29.96,ESE,111,0.0,0.0,77,0.00,,,0.00,,2013-02-04 11:32:00,
2013-02-04 04:41:00,47.0,40.0,29.96,ESE,111,0.0,0.0,77,0.00,,,0.00,,2013-02-04 11:41:00,
2013-02-04 04:52:00,47.0,41.0,29.96,ESE,111,0.0,0.0,78,0.00,,,0.00,,2013-02-04 11:52:00,
2013-02-04 05:02:00,47.0,41.0,29.96,ESE,111,0.0,0.0,78,0.00,,,0.00,,2013-02-04 12:02:00,
2013-02-04 05:12:00,47.0,41.0,29.96,ESE,111,0.0,0.0,78,0.00,,,0.00,,2013-02-04 12:12:00,
2013-02-04 05:21:00,47.0,41.0,29.96,ESE,111,0.0,0.0,78,0.00,,,0.00,,2013-02-04 12:21:00,
2013-02-04 05:32:00,46.0,40.0,29.95,ESE,111,0.0,2.0,79,0.00,,,0.00,,2013-02-04 12:32:00,
2013-02-04 05:42:00,46.0,40.0,29.95,ESE,111,0.0,2.0,79,0.00,,,0.00,,2013-02-04 12:42:00,
2013-02-04 05:52:00,45.0,39.0,29.95,ESE,111,0.0,0.0,79,0.00,,,0.00,,2013-02-04 12:52:00,
2013-02-04 06:01:00,45.0,39.0,29.95,ESE,111,0.0,0.0,80,0.00,,,0.00,,2013-02-04 13:01:00,
2013-02-04 06:11:00,44.0,39.0,29.96,ESE,111,0.0,0.0,81,0.00,,,0.00,,2013-02-04 13:11:00,
2013-02-04 06:21:00,44.0,39.0,29.96,ESE,111,0.0,0.0,81,0.00,,,0.00,,2013-02-04 13:21:00,
2013-02-04 06:32:00,45.0,39.0,29.96,ESE,111,0.0,1.0,80,0.00,,,0.00,,2013-02-04 13:32:00,
2013-02-04 06:41:00,45.0,39.0,29.96,ESE,111,0.0,1.0,80,0.00,,,0.00,,2013-02-04 13:41:00,
2013-02-04 06:52:00,44.0,38.0,29.96,ESE,111,0.0,0.0,79,0.00,,,0.00,,2013-02-04 13:52:00,
2013-02-04 07:02:00,44.0,39.0,29.96,ESE,111,0.0,0.0,81,0.00,,,0.00,,2013-02-04 14:02:00,
2013-02-04 07:11:00,44.0,39.0,29.96,ESE,111,0.0,0.0,81,0.00,,,0.00,,2013-02-04 14:11:00,
2013-02-04 07:21:00,44.0,39.0,29.97,ESE,111,0.0,0.0,82,0.00,,,0.00,,2013-02-04 14:21:00,
2013-02-04 07:32:00,44.0,39.0,29.97,ESE,111,0.0,0.0,81,0.00,,,0.00,,2013-02-04 14:32:00,
2013-02-04 07:42:00,44.0,39.0,29.97,ESE,111,0.0,0.0,81,0.00,,,0.00,,2013-02-04 14:42:00,
2013-02-04 07:52:00,44.0,39.0,29.97,ESE,111,0.0,0.0,82,0.00,,,0.00,,2013-02-04 14:52:00,
2013-02-04 08:02:00,45.0,40.0,29.98,ESE,111,0.0,2.0,81,0.00,,,0.00,,2013-02-04 15:02:00,
2013-02-04 08:11:00,45.0,40.0,29.98,ESE,111,0.0,2.0,81,0.00,,,0.00,,2013-02-04 15:11:00,
2013-02-04 08:22:00,46.0,40.0,29.99,ESE,111,0.0,0.0,79,0.00,,,0.00,,2013-02-04 15:22:00,
2013-02-04 08:33:00,47.0,41.0,30.00,ESE,111,0.0,0.0,78,0.00,,,0.00,,2013-02-04 15:33:00,
2013-02-04 08:42:00,47.0,41.0,30.00,ESE,111,0.0,0.0,78,0.00,,,0.00,,2013-02-04 15:42:00,
2013-02-04 08:52:00,49.0,41.0,30.00,ESE,111,0.0,0.0,74,0.00,,,0.00,,2013-02-04 15:52:00,
2013-02-04 09:01:00,50.0,40.0,30.01,ESE,111,0.0,0.0,69,0.00,,,0.00,,2013-02-04 16:01:00,
2013-02-04 09:11:00,50.0,40.0,30.01,ESE,111,0.0,0.0,69,0.00,,,0.00,,2013-02-04 16:11:00,
2013-02-04 09:21:00,51.0,40.0,30.01,ESE,111,0.0,0.0,66,0.00,,,0.00,,2013-02-04 16:21:00,
2013-02-04 09:32:00,53.0,41.0,30.01,ESE,113,0.0,1.0,63,0.00,,,0.00,,2013-02-04 16:32:00,
2013-02-04 09:42:00,53.0,41.0,30.01,ESE,113,0.0,1.0,63,0.00,,,0.00,,2013-02-04 16:42:00,
2013-02-04 09:51:00,53.0,40.0,30.01,ESE,113,0.0,1.0,62,0.00,,,0.00,,2013-02-04 16:51:00,
2013-02-04 10:01:00,55.0,41.0,30.01,ESE,113,0.0,1.0,60,0.00,,,0.00,,2013-02-04 17:01:00,
2013-02-04 10:11:00,56.0,40.0,30.01,South,189,0.0,3.0,55,0.00,,,0.00,,2013-02-04 17:11:00,
2013-02-04 10:21:00,56.0,40.0,30.01,South,189,0.0,3.0,55,0.00,,,0.00,,2013-02-04 17:21:00,
2013-02-04 10:31:00,59.0,40.0,30.01,South,189,0.0,3.0,50,0.00,,,0.00,,2013-02-04 17:31:00,
2013-02-04 10:41:00,60.0,39.0,30.01,South,188,1.0,4.0,46,0.00,,,0.00,,2013-02-04 17:41:00,
2013-02-04 10:51:00,60.0,39.0,30.01,South,188,1.0,4.0,46,0.00,,,0.00,,2013-02-04 17:51:00,
2013-02-04 11:02:00,61.0,40.0,30.01,SW,220,0.0,3.0,45,0.00,,,0.00,,2013-02-04 18:02:00,
2013-02-04 11:11:00,61.0,40.0,30.01,SW,220,0.0,3.0,45,0.00,,,0.00,,2013-02-04 18:11:00,
2013-02-04 11:21:00,63.0,40.0,30.00,SSW,193,1.0,5.0,43,0.00,,,0.00,,2013-02-04 18:21:00,
2013-02-04 11:31:00,64.0,40.0,30.00,SW,223,2.0,5.0,42,0.00,,,0.00,,2013-02-04 18:31:00,
2013-02-04 11:41:00,64.0,40.0,30.00,SW,223,2.0,5.0,42,0.00,,,0.00,,2013-02-04 18:41:00,
2013-02-04 11:52:00,64.0,40.0,29.99,WNW,286,2.0,5.0,42,0.00,,,0.00,,2013-02-04 18:52:00,
2013-02-04 12:01:00,64.0,40.0,29.99,SW,233,2.0,5.0,41,0.00,,,0.00,,2013-02-04 19:01:00,
2013-02-04 12:11:00,64.0,40.0,29.99,SW,233,2.0,5.0,41,0.00,,,0.00,,2013-02-04 19:11:00,
2013-02-04 12:21:00,65.0,39.0,29.98,WSW,244,1.0,6.0,39,0.00,,,0.00,,2013-02-04 19:21:00,
2013-02-04 12:31:00,66.0,39.0,29.97,SW,234,1.0,3.0,37,0.00,,,0.00,,2013-02-04 19:31:00,
2013-02-04 12:41:00,66.0,39.0,29.97,SW,234,1.0,3.0,37,0.00,,,0.00,,2013-02-04 19:41:00,
2013-02-04 12:52:00,67.0,39.0,29.96,SW,232,1.0,5.0,36,0.00,,,0.00,,2013-02-04 19:52:00,
2013-02-04 13:01:00,68.0,40.0,29.95,West,267,2.0,6.0,36,0.00,,,0.00,,2013-02-04 20:01:00,
2013-02-04 13:11:00,68.0,40.0,29.95,West,267,2.0,6.0,36,0.00,,,0.00,,2013-02-04 20:11:00,
2013-02-04 13:21:00,68.0,40.0,29.95,West,259,1.0,5.0,36,0.00,,,0.00,,2013-02-04 20:21:00,
2013-02-04 13:31:00,68.0,40.0,29.94,WNW,288,1.0,4.0,36,0.00,,,0.00,,2013-02-04 20:31:00,
2013-02-04 13:42:00,68.0,40.0,29.94,WNW,288,1.0,4.0,36,0.00,,,0.00,,2013-02-04 20:42:00,
2013-02-04 13:52:00,68.0,40.0,29.93,WNW,294,2.0,5.0,36,0.00,,,0.00,,2013-02-04 20:52:00,
2013-02-04 14:01:00,69.0,42.0,29.93,West,265,1.0,6.0,37,0.00,,,0.00,,2013-02-04 21:01:00,
2013-02-04 14:11:00,69.0,42.0,29.93,West,265,1.0,6.0,37,0.00,,,0.00,,2013-02-04 21:11:00,
2013-02-04 14:22:00,69.0,42.0,29.92,NW,323,3.0,7.0,37,0.00,,,0.00,,2013-02-04 21:22:00,
2013-02-04 14:31:00,70.0,40.0,29.92,NW,310,4.0,7.0,34,0.00,,,0.00,,2013-02-04 21:31:00,
2013-02-04 14:42:00,70.0,40.0,29.92,NW,310,4.0,7.0,34,0.00,,,0.00,,2013-02-04 21:42:00,
2013-02-04 14:52:00,69.0,41.0,29.91,WNW,299,3.0,7.0,36,0.00,,,0.00,,2013-02-04 21:52:00,
2013-02-04 15:01:00,70.0,41.0,29.91,West,259,2.0,7.0,35,0.00,,,0.00,,2013-02-04 22:01:00,
2013-02-04 15:11:00,70.0,41.0,29.91,West,259,2.0,7.0,35,0.00,,,0.00,,2013-02-04 22:11:00,
2013-02-04 15:21:00,70.0,40.0,29.91,West,263,4.0,9.0,33,0.00,,,0.00,,2013-02-04 22:21:00,
2013-02-04 15:32:00,69.0,39.0,29.91,West,269,4.0,8.0,34,0.00,,,0.00,,2013-02-04 22:32:00,
2013-02-04 15:41:00,69.0,39.0,29.91,West,269,4.0,8.0,34,0.00,,,0.00,,2013-02-04 22:41:00,
2013-02-04 15:52:00,69.0,39.0,29.91,SW,230,2.0,2.0,33,0.00,,,0.00,,2013-02-04 22:52:00,
2013-02-04 16:01:00,69.0,39.0,29.91,SW,233,3.0,6.0,34,0.00,,,0.00,,2013-02-04 23:01:00,
2013-02-04 16:11:00,69.0,39.0,29.91,SW,233,3.0,6.0,34,0.00,,,0.00,,2013-02-04 23:11:00,
2013-02-04 16:21:00,69.0,39.0,29.90,SW,229,4.0,7.0,34,0.00,,,0.00,,2013-02-04 23:21:00,
2013-02-04 16:31:00,69.0,39.0,29.90,SW,236,2.0,7.0,34,0.00,,,0.00,,2013-02-04 23:31:00,
2013-02-04 16:41:00,69.0,39.0,29.90,SW,236,2.0,7.0,34,0.00,,,0.00,,2013-02-04 23:41:00,
2013-02-04 16:52:00,69.0,39.0,29.90,WSW,242,2.0,5.0,34,0.00,,,0.00,,2013-02-04 23:52:00,
2013-02-04 17:01:00,69.0,39.0,29.90,West,278,1.0,7.0,33,0.00,,,0.00,,2013-02-05 00:01:00,
2013-02-04 17:11:00,69.0,39.0,29.90,West,278,1.0,7.0,33,0.00,,,0.00,,2013-02-05 00:11:00,
2013-02-04 17:21:00,68.0,38.0,29.90,West,261,2.0,7.0,33,0.00,,,0.00,,2013-02-05 00:21:00,
2013-02-04 17:31:00,68.0,39.0,29.90,WSW,255,1.0,0.0,34,0.00,,,0.00,,2013-02-05 00:31:00,
2013-02-04 17:41:00,68.0,39.0,29.90,WSW,255,1.0,0.0,34,0.00,,,0.00,,2013-02-05 00:41:00,
2013-02-04 17:52:00,67.0,39.0,29.90,WNW,297,4.0,7.0,36,0.00,,,0.00,,2013-02-05 00:52:00,
2013-02-04 18:01:00,65.0,39.0,29.90,WNW,286,3.0,8.0,38,0.00,,,0.00,,2013-02-05 01:01:00,
2013-02-04 18:11:00,65.0,39.0,29.90,WNW,286,3.0,8.0,38,0.00,,,0.00,,2013-02-05 01:11:00,
2013-02-04 18:21:00,64.0,39.0,29.90,West,270,2.0,8.0,40,0.00,,,0.00,,2013-02-05 01:21:00,
2013-02-04 18:32:00,62.0,39.0,29.90,West,272,0.0,3.0,43,0.00,,,0.00,,2013-02-05 01:32:00,
2013-02-04 18:42:00,62.0,39.0,29.90,West,272,0.0,3.0,43,0.00,,,0.00,,2013-02-05 01:42:00,
2013-02-04 18:51:00,60.0,39.0,29.91,West,272,0.0,0.0,45,0.00,,,0.00,,2013-02-05 01:51:00,
2013-02-04 19:01:00,58.0,39.0,29.91,West,272,0.0,0.0,50,0.00,,,0.00,,2013-02-05 02:01:00,
2013-02-04 19:11:00,58.0,39.0,29.91,West,272,0.0,0.0,50,0.00,,,0.00,,2013-02-05 02:11:00,
2013-02-04 19:21:00,56.0,39.0,29.92,West,272,0.0,0.0,53,0.00,,,0.00,,2013-02-05 02:21:00,
2013-02-04 19:31:00,57.0,40.0,29.92,West,272,0.0,0.0,53,0.00,,,0.00,,2013-02-05 02:31:00,
2013-02-04 19:41:00,57.0,40.0,29.92,West,272,0.0,0.0,53,0.00,,,0.00,,2013-02-05 02:41:00,
2013-02-04 19:52:00,56.0,40.0,29.92,West,267,0.0,2.0,55,0.00,,,0.00,,2013-02-05 02:52:00,
2013-02-04 20:01:00,55.0,41.0,29.93,West,269,0.0,1.0,58,0.00,,,0.00,,2013-02-05 03:01:00,
2013-02-04 20:11:00,55.0,41.0,29.93,West,269,0.0,1.0,58,0.00,,,0.00,,2013-02-05 03:11:00,
2013-02-04 20:21:00,54.0,40.0,29.93,West,271,1.0,2.0,58,0.00,,,0.00,,2013-02-05 03:21:00,
2013-02-04 20:31:00,53.0,39.0,29.94,West,271,0.0,1.0,60,0.00,,,0.00,,2013-02-05 03:31:00,
2013-02-04 20:41:00,53.0,39.0,29.94,West,271,0.0,1.0,60,0.00,,,0.00,,2013-02-05 03:41:00,
2013-02-04 20:51:00,54.0,40.0,29.95,West,268,0.0,2.0,60,0.00,,,0.00,,2013-02-05 03:51:00,
2013-02-04 21:01:00,53.0,39.0,29.95,West,269,0.0,1.0,60,0.00,,,0.00,,2013-02-05 04:01:00,
2013-02-04 21:11:00,53.0,39.0,29.95,West,269,0.0,1.0,60,0.00,,,0.00,,2013-02-05 04:11:00,
2013-02-04 21:21:00,53.0,40.0,29.96,West,269,0.0,0.0,61,0.00,,,0.00,,2013-02-05 04:21:00,
2013-02-04 21:31:00,53.0,40.0,29.96,West,265,0.0,2.0,61,0.00,,,0.00,,2013-02-05 04:31:00,
2013-02-04 21:41:00,53.0,40.0,29.96,West,265,0.0,2.0,61,0.00,,,0.00,,2013-02-05 04:41:00,
2013-02-04 21:52:00,52.0,39.0,29.97,West,268,1.0,2.0,62,0.00,,,0.00,,2013-02-05 04:52:00,
2013-02-04 22:01:00,51.0,39.0,29.97,West,269,0.0,0.0,64,0.00,,,0.00,,2013-02-05 05:01:00,
2013-02-04 22:11:00,51.0,39.0,29.97,West,269,0.0,0.0,64,0.00,,,0.00,,2013-02-05 05:11:00,
2013-02-04 22:21:00,50.0,39.0,29.97,West,269,0.0,0.0,67,0.00,,,0.00,,2013-02-05 05:21:00,
2013-02-04 22:31:00,49.0,39.0,29.98,West,274,1.0,2.0,69,0.00,,,0.00,,2013-02-05 05:31:00,
2013-02-04 22:41:00,49.0,39.0,29.98,West,274,1.0,2.0,69,0.00,,,0.00,,2013-02-05 05:41:00,
2013-02-04 22:52:00,50.0,40.0,29.98,NNW,337,0.0,2.0,68,0.00,,,0.00,,2013-02-05 05:52:00,
2013-02-04 23:01:00,49.0,39.0,29.98,NNW,337,1.0,2.0,69,0.00,,,0.00,,2013-02-05 06:01:00,
2013-02-04 23:11:00,49.0,39.0,29.98,NNW,337,1.0,2.0,69,0.00,,,0.00,,2013-02-05 06:11:00,
2013-02-04 23:21:00,49.0,39.0,29.98,NNW,337,0.0,2.0,69,0.00,,,0.00,,2013-02-05 06:21:00,
2013-02-04 23:31:00,48.0,40.0,29.99,NNW,337,0.0,0.0,73,0.00,,,0.00,,2013-02-05 06:31:00,
2013-02-04 23:41:00,48.0,40.0,29.99,NNW,337,0.0,0.0,73,0.00,,,0.00,,2013-02-05 06:41:00,
2013-02-04 23:52:00,47.0,39.0,29.99,NNW,337,0.0,1.0,74,0.00,,,0.00,,2013-02-05 06:52:00,